Terminal Aerodrome Forecast
Issued by NWS

Home | Current Version | Previous Version | Text Only | Print | Product List | Glossary Off
Versions: 1 2 3 4 5 6 7 8 9 10 11 12 13 14 15 16 17

000
FTUS43 KUNR 252300
TAFGCC
TAF
KGCC 252324Z 2600/2624 36022G32KT 4SM -SN BLSN BR SCT014 OVC025
      TEMPO 2600/2604 1SM -SN OVC012
     FM260400 36014KT 4SM -SN OVC015
     FM260800 02006KT P6SM OVC015
     FM261600 03008KT P6SM BKN250=

USA.gov is the U.S. government's official web portal to all federal, state and local government web resources and services.